createdAt,value
2023-11-21T00:00:17.356Z,86291.97
2023-11-21T00:00:57.293Z,86290.69
2023-11-21T00:01:37.103Z,86300.34
2023-11-21T00:02:16.933Z,86303.03
2023-11-21T00:02:56.731Z,86310.56
2023-11-21T00:03:37.842Z,86314.59
2023-11-21T00:04:17.783Z,86314.06
2023-11-21T00:04:57.472Z,86325.06
2023-11-21T00:05:37.527Z,86330.56
2023-11-21T00:06:17.411Z,86329.16
2023-11-21T00:06:57.149Z,86331.84
2023-11-21T00:07:36.894Z,86333.31
2023-11-21T00:08:16.775Z,86346.38
2023-11-21T00:08:56.988Z,86355.19
2023-11-21T00:09:38.630Z,86360.78
2023-11-21T00:10:18.367Z,86360.16
2023-11-21T00:10:58.391Z,86367.03
2023-11-21T00:11:39.952Z,86368.41
2023-11-21T00:12:19.835Z,86364.75
2023-11-21T00:12:59.582Z,86360.66
2023-11-21T00:13:39.787Z,86373.00
2023-11-21T00:14:20.013Z,86359.84
2023-11-21T00:15:00.078Z,86362.00
2023-11-21T00:15:39.747Z,86367.44
2023-11-21T00:16:20.350Z,86366.19
2023-11-21T00:17:01.823Z,86372.38
2023-11-21T00:17:41.926Z,86364.75
2023-11-21T00:18:21.739Z,86368.91
2023-11-21T00:19:01.459Z,86371.63
2023-11-21T00:19:42.599Z,86368.94
2023-11-21T00:20:22.973Z,86369.03
2023-11-21T00:21:02.761Z,86363.47
2023-11-21T00:21:42.778Z,86368.97
2023-11-21T00:22:22.781Z,86370.34
2023-11-21T00:23:04.352Z,86370.91
2023-11-21T00:23:44.127Z,86362.72
2023-11-21T00:24:23.817Z,86362.22
2023-11-21T00:25:05.884Z,86372.50
2023-11-21T00:25:46.151Z,86360.31
2023-11-21T00:26:26.280Z,86362.91
2023-11-21T00:27:14.808Z,86363.69
2023-11-21T00:27:56.037Z,86364.91
2023-11-21T00:28:35.757Z,86371.84
2023-11-21T00:29:15.520Z,86368.44
2023-11-21T00:29:55.609Z,86363.69
2023-11-21T00:30:35.844Z,86367.78
2023-11-21T00:31:15.815Z,86377.28
2023-11-21T00:31:55.581Z,86369.22
2023-11-21T00:32:36.117Z,86382.88
2023-11-21T00:33:16.084Z,86406.25
2023-11-21T00:33:57.540Z,86421.19
2023-11-21T00:34:37.234Z,86411.59
2023-11-21T00:35:17.909Z,86410.22
2023-11-21T00:35:58.678Z,86413.41
2023-11-21T00:36:38.398Z,86419.78
2023-11-21T00:37:18.351Z,86416.97
2023-11-21T00:37:58.350Z,86422.34
2023-11-21T00:38:41.852Z,86422.44
2023-11-21T00:39:21.696Z,86422.94
2023-11-21T00:40:01.478Z,86420.41
2023-11-21T00:40:42.851Z,86425.00
2023-11-21T00:41:23.109Z,86428.25
2023-11-21T00:42:03.093Z,86423.28
2023-11-21T00:42:42.763Z,86426.63
2023-11-21T00:43:22.634Z,86425.81
2023-11-21T00:44:02.927Z,86423.91
2023-11-21T00:44:42.601Z,86425.38
2023-11-21T00:45:22.321Z,86426.47
2023-11-21T00:46:02.149Z,86416.59
2023-11-21T00:46:42.537Z,86417.34
2023-11-21T00:47:22.436Z,86420.22
2023-11-21T00:48:02.167Z,86423.56
2023-11-21T00:48:42.300Z,86421.06
2023-11-21T00:49:22.827Z,86433.47
2023-11-21T00:50:02.840Z,86421.81
2023-11-21T00:50:43.409Z,86420.25
2023-11-21T00:51:24.054Z,86414.16
2023-11-21T00:52:04.773Z,86426.59
2023-11-21T00:52:44.993Z,86426.19
2023-11-21T00:53:25.937Z,86420.13
2023-11-21T00:54:06.332Z,86429.16
2023-11-21T00:54:46.821Z,86435.06
2023-11-21T00:55:28.400Z,86427.34
2023-11-21T00:56:10.452Z,86426.56
2023-11-21T00:56:50.299Z,86436.34
2023-11-21T00:57:30.687Z,86431.72
2023-11-21T00:58:10.377Z,86430.50
2023-11-21T00:58:54.097Z,86429.97
2023-11-21T00:59:33.981Z,86432.69
2023-11-21T01:00:18.936Z,86428.63
2023-11-21T01:00:58.531Z,86429.13
2023-11-21T01:01:39.891Z,86420.19
2023-11-21T01:02:21.317Z,86427.91
2023-11-21T01:03:02.048Z,86435.47
2023-11-21T01:03:42.760Z,86425.22
2023-11-21T01:04:22.584Z,86435.28
2023-11-21T01:05:02.485Z,86435.97
2023-11-21T01:05:42.946Z,86429.81
2023-11-21T01:06:22.608Z,86436.25
2023-11-21T01:07:02.289Z,86430.16
2023-11-21T01:07:43.230Z,86434.88
2023-11-21T01:08:26.114Z,86430.91
2023-11-21T01:09:10.271Z,86434.59
2023-11-21T01:09:50.562Z,86437.94
2023-11-21T01:10:30.709Z,86439.59
2023-11-21T01:11:10.653Z,86437.78
2023-11-21T01:11:50.651Z,86438.59
2023-11-21T01:12:30.793Z,86444.69
2023-11-21T01:13:10.641Z,86451.00
2023-11-21T01:13:50.973Z,86444.31
2023-11-21T01:14:30.785Z,86452.38
2023-11-21T01:15:10.949Z,86452.16
2023-11-21T01:15:50.849Z,86454.31
2023-11-21T01:16:30.733Z,86454.56
2023-11-21T01:17:10.733Z,86460.56
2023-11-21T01:17:50.676Z,86459.03
2023-11-21T01:18:31.192Z,86458.53
2023-11-21T01:19:11.500Z,86462.56
2023-11-21T01:19:52.676Z,86459.84
2023-11-21T01:20:32.537Z,86458.50
2023-11-21T01:21:12.676Z,86451.88
2023-11-21T01:21:53.959Z,86455.31
2023-11-21T01:22:33.761Z,86460.06
2023-11-21T01:23:13.542Z,86456.88
2023-11-21T01:23:53.196Z,86457.31
2023-11-21T01:24:33.454Z,86464.91
2023-11-21T01:25:13.639Z,86459.28
2023-11-21T01:25:53.812Z,86457.91
2023-11-21T01:26:33.659Z,86453.91
2023-11-21T01:27:15.045Z,86458.66
2023-11-21T01:27:54.779Z,86460.84
2023-11-21T01:28:34.518Z,86465.31
2023-11-21T01:29:14.373Z,86466.19
2023-11-21T01:29:55.560Z,86459.53
2023-11-21T01:30:35.536Z,86463.56
2023-11-21T01:31:15.332Z,86454.31
2023-11-21T01:31:55.369Z,86460.84
2023-11-21T01:32:36.021Z,86466.66
2023-11-21T01:33:17.888Z,86469.09
2023-11-21T01:33:59.149Z,86465.09
2023-11-21T01:34:39.450Z,86469.88
2023-11-21T01:35:19.671Z,86467.78
2023-11-21T01:35:59.354Z,86466.19
2023-11-21T01:36:39.014Z,86466.00
2023-11-21T01:37:19.509Z,86471.66
2023-11-21T01:37:59.526Z,86468.13
2023-11-21T01:38:39.254Z,86463.28
2023-11-21T01:39:25.419Z,86468.97
2023-11-21T01:40:10.212Z,86468.56
2023-11-21T01:40:51.233Z,86471.78
2023-11-21T01:41:32.755Z,86470.31
2023-11-21T01:42:14.803Z,86472.09
2023-11-21T01:42:56.248Z,86470.78
2023-11-21T01:43:36.138Z,86469.09
2023-11-21T01:44:15.886Z,86475.69
2023-11-21T01:44:56.844Z,86468.88
2023-11-21T01:45:36.558Z,86474.25
2023-11-21T01:46:17.581Z,86481.28
2023-11-21T01:46:59.621Z,86471.44
2023-11-21T01:47:40.214Z,86479.81
2023-11-21T01:48:20.618Z,86482.69
2023-11-21T01:49:01.165Z,86476.66
2023-11-21T01:49:41.376Z,86483.41
2023-11-21T01:50:21.222Z,86478.75
2023-11-21T01:51:01.304Z,86478.75
2023-11-21T01:51:45.728Z,86488.88
2023-11-21T01:52:26.557Z,86477.78
2023-11-21T01:53:08.839Z,86477.16
2023-11-21T01:53:49.110Z,86477.81
2023-11-21T01:54:33.925Z,86473.00
2023-11-21T01:55:27.526Z,86471.38
2023-11-21T01:56:11.759Z,86474.47
2023-11-21T01:56:51.959Z,86473.72
2023-11-21T01:57:32.253Z,86471.00
2023-11-21T01:58:15.056Z,86474.25
2023-11-21T01:58:56.446Z,86474.34
2023-11-21T01:59:40.142Z,86475.81
2023-11-21T02:00:21.179Z,86468.78
2023-11-21T02:01:01.265Z,86481.53
2023-11-21T02:01:43.319Z,86482.31
2023-11-21T02:02:23.157Z,86472.88
2023-11-21T02:03:04.615Z,86481.44
2023-11-21T02:03:44.480Z,86468.38
2023-11-21T02:04:24.594Z,86472.44
2023-11-21T02:05:04.620Z,86472.28
2023-11-21T02:05:44.693Z,86469.56
2023-11-21T02:06:24.702Z,86474.47
2023-11-21T02:07:09.100Z,86468.47
2023-11-21T02:07:54.195Z,86477.63
2023-11-21T02:08:34.925Z,86471.22
2023-11-21T02:09:17.358Z,86473.34
2023-11-21T02:09:57.863Z,86469.88
2023-11-21T02:10:39.169Z,86475.22
2023-11-21T02:11:21.270Z,86468.09
2023-11-21T02:12:01.144Z,86473.69
2023-11-21T02:12:40.944Z,86474.31
2023-11-21T02:13:20.722Z,86476.84
2023-11-21T02:14:02.803Z,86469.94
2023-11-21T02:14:42.550Z,86462.00
2023-11-21T02:15:22.578Z,86460.81
2023-11-21T02:16:02.434Z,86460.19
2023-11-21T02:16:42.764Z,86476.19
2023-11-21T02:17:29.522Z,86474.41
2023-11-21T02:18:12.007Z,86469.00
2023-11-21T02:18:54.210Z,86475.41
2023-11-21T02:19:35.080Z,86483.16
2023-11-21T02:20:19.738Z,86482.34
2023-11-21T02:20:59.722Z,86478.25
2023-11-21T02:21:42.434Z,86474.25
2023-11-21T02:22:24.517Z,86478.59
2023-11-21T02:23:04.302Z,86475.72
2023-11-21T02:23:46.345Z,86471.50
2023-11-21T02:24:26.753Z,86467.25
2023-11-21T02:25:07.492Z,86471.88
2023-11-21T02:25:47.232Z,86468.50
2023-11-21T02:26:29.585Z,86469.94
2023-11-21T02:27:09.341Z,86475.72
2023-11-21T02:27:50.225Z,86480.09
2023-11-21T02:28:30.937Z,86475.44
2023-11-21T02:29:13.980Z,86473.16
2023-11-21T02:29:53.660Z,86476.91
2023-11-21T02:30:34.381Z,86479.66
2023-11-21T02:31:14.510Z,86477.78
2023-11-21T02:31:57.035Z,86480.63
2023-11-21T02:32:36.921Z,86480.09
2023-11-21T02:33:28.499Z,86472.34
2023-11-21T02:34:08.221Z,86477.03
2023-11-21T02:34:48.172Z,86471.56
2023-11-21T02:35:28.182Z,86480.13
2023-11-21T02:36:08.666Z,86476.78
2023-11-21T02:36:49.402Z,86477.16
2023-11-21T02:37:29.768Z,86479.63
2023-11-21T02:38:09.483Z,86478.03
2023-11-21T02:38:49.586Z,86474.13
2023-11-21T02:39:29.522Z,86474.63
2023-11-21T02:40:11.780Z,86476.78
2023-11-21T02:40:51.583Z,86485.41
2023-11-21T02:41:31.841Z,86482.66
2023-11-21T02:42:12.407Z,86478.97
2023-11-21T02:42:53.325Z,86474.16
2023-11-21T02:43:33.086Z,86478.38
2023-11-21T02:44:13.580Z,86479.06
2023-11-21T02:44:53.356Z,86481.06
2023-11-21T02:45:33.568Z,86476.16
2023-11-21T02:46:13.320Z,86471.56
2023-11-21T02:46:53.569Z,86463.00
2023-11-21T02:47:33.366Z,86462.47
2023-11-21T02:48:13.420Z,86468.88
2023-11-21T02:48:55.522Z,86460.56
2023-11-21T02:49:37.796Z,86455.38
2023-11-21T02:50:18.336Z,86449.75
2023-11-21T02:50:58.947Z,86452.78
2023-11-21T02:51:41.990Z,86448.53
2023-11-21T02:52:22.502Z,86443.00
2023-11-21T02:53:02.260Z,86443.44
2023-11-21T02:53:42.196Z,86436.06
2023-11-21T02:54:23.957Z,86423.88
2023-11-21T02:55:05.231Z,86425.09
2023-11-21T02:55:45.298Z,86416.28
2023-11-21T02:56:25.062Z,86416.34
2023-11-21T02:57:05.280Z,86403.94
2023-11-21T02:57:45.483Z,86404.75
2023-11-21T02:58:25.257Z,86396.59
2023-11-21T02:59:05.688Z,86394.47
2023-11-21T02:59:45.445Z,86383.78
2023-11-21T03:00:28.538Z,86377.59
2023-11-21T03:01:09.458Z,86372.16
2023-11-21T03:01:49.301Z,86369.19
2023-11-21T03:02:29.216Z,86359.06
2023-11-21T03:03:10.305Z,86352.06
2023-11-21T03:03:53.121Z,86355.38
2023-11-21T03:04:34.707Z,86352.69
2023-11-21T03:05:14.447Z,86357.75
2023-11-21T03:05:54.317Z,86352.72
2023-11-21T03:06:34.024Z,86351.31
2023-11-21T03:07:13.820Z,86344.47
2023-11-21T03:07:53.759Z,86350.16
2023-11-21T03:08:34.328Z,86340.00
2023-11-21T03:09:14.332Z,86344.75
2023-11-21T03:09:54.229Z,86337.91
2023-11-21T03:10:34.174Z,86340.72
2023-11-21T03:11:14.977Z,86339.91
2023-11-21T03:11:55.441Z,86332.00
2023-11-21T03:12:35.172Z,86334.75
2023-11-21T03:13:15.463Z,86336.41
2023-11-21T03:13:55.758Z,86334.91
2023-11-21T03:14:35.491Z,86340.50
2023-11-21T03:15:15.478Z,86344.59
2023-11-21T03:15:56.478Z,86340.38
2023-11-21T03:16:36.638Z,86344.28
2023-11-21T03:17:16.914Z,86336.72
2023-11-21T03:17:56.808Z,86344.13
2023-11-21T03:18:37.389Z,86334.94
2023-11-21T03:19:17.766Z,86343.69
2023-11-21T03:19:59.166Z,86344.38
2023-11-21T03:20:39.888Z,86340.09
2023-11-21T03:21:19.677Z,86341.66
2023-11-21T03:21:59.606Z,86339.13
2023-11-21T03:22:40.601Z,86343.91
2023-11-21T03:23:20.423Z,86337.53
2023-11-21T03:24:01.831Z,86335.19
2023-11-21T03:24:42.071Z,86334.81
2023-11-21T03:25:22.483Z,86332.00
2023-11-21T03:26:02.392Z,86333.38
2023-11-21T03:26:43.217Z,86330.56
2023-11-21T03:27:23.110Z,86326.63
2023-11-21T03:28:02.875Z,86321.34
2023-11-21T03:28:42.955Z,86329.38
2023-11-21T03:29:22.695Z,86322.59
2023-11-21T03:30:03.145Z,86320.94
2023-11-21T03:30:43.252Z,86322.50
2023-11-21T03:31:23.305Z,86323.34
2023-11-21T03:32:03.959Z,86318.53
2023-11-21T03:32:43.933Z,86321.13
2023-11-21T03:33:24.093Z,86319.00
2023-11-21T03:34:05.414Z,86327.28
2023-11-21T03:35:00.919Z,86316.03
2023-11-21T03:35:43.914Z,86317.97
2023-11-21T03:36:23.877Z,86319.91
2023-11-21T03:37:04.029Z,86314.84
2023-11-21T03:37:45.059Z,86318.47
2023-11-21T03:38:25.459Z,86322.72
2023-11-21T03:39:05.271Z,86319.00
2023-11-21T03:39:45.181Z,86315.09
2023-11-21T03:40:25.025Z,86317.94
2023-11-21T03:41:05.385Z,86320.94
2023-11-21T03:41:45.260Z,86324.88
2023-11-21T03:42:25.297Z,86324.38
2023-11-21T03:43:05.283Z,86323.00
2023-11-21T03:43:45.286Z,86328.88
2023-11-21T03:44:27.450Z,86328.19
2023-11-21T03:45:10.737Z,86324.94
2023-11-21T03:45:50.716Z,86328.50
2023-11-21T03:46:30.931Z,86327.66
2023-11-21T03:47:10.883Z,86324.94
2023-11-21T03:47:50.697Z,86326.44
2023-11-21T03:48:30.535Z,86331.25
2023-11-21T03:49:10.606Z,86337.81
2023-11-21T03:49:50.351Z,86328.34
2023-11-21T03:50:33.548Z,86335.16
2023-11-21T03:51:13.278Z,86335.91
2023-11-21T03:51:53.783Z,86332.75
2023-11-21T03:52:33.760Z,86337.69
2023-11-21T03:53:15.253Z,86338.59
2023-11-21T03:53:55.625Z,86340.88
2023-11-21T03:54:36.370Z,86341.13
2023-11-21T03:55:16.994Z,86339.16
2023-11-21T03:55:56.783Z,86350.06
2023-11-21T03:56:36.476Z,86344.56
2023-11-21T03:57:16.801Z,86351.25
2023-11-21T03:57:56.968Z,86352.69
2023-11-21T03:58:36.790Z,86357.28
2023-11-21T03:59:16.557Z,86352.69
2023-11-21T03:59:56.434Z,86361.00
2023-11-21T04:00:36.125Z,86358.00
2023-11-21T04:01:23.815Z,86360.81
2023-11-21T04:02:03.518Z,86363.47
2023-11-21T04:02:43.865Z,86363.44
2023-11-21T04:03:24.026Z,86364.94
2023-11-21T04:04:03.923Z,86364.97
2023-11-21T04:04:44.202Z,86365.78
2023-11-21T04:05:24.738Z,86362.31
2023-11-21T04:06:04.650Z,86369.34
2023-11-21T04:06:44.443Z,86373.59
2023-11-21T04:07:24.199Z,86370.00
2023-11-21T04:08:04.497Z,86376.19
2023-11-21T04:08:44.382Z,86376.72
2023-11-21T04:09:27.036Z,86381.66
2023-11-21T04:10:11.105Z,86374.03
2023-11-21T04:10:51.043Z,86377.16
2023-11-21T04:11:31.953Z,86372.44
2023-11-21T04:12:11.711Z,86369.59
2023-11-21T04:12:51.398Z,86375.28
2023-11-21T04:13:32.706Z,86384.91
2023-11-21T04:14:12.638Z,86379.25
2023-11-21T04:14:53.582Z,86383.84
2023-11-21T04:15:34.093Z,86379.16
2023-11-21T04:16:14.090Z,86379.78
2023-11-21T04:16:54.002Z,86381.84
2023-11-21T04:17:33.967Z,86379.16
2023-11-21T04:18:13.837Z,86377.88
2023-11-21T04:18:54.018Z,86379.69
2023-11-21T04:19:34.009Z,86386.72
2023-11-21T04:20:13.996Z,86380.63
2023-11-21T04:20:54.978Z,86381.88
2023-11-21T04:21:35.303Z,86383.38
2023-11-21T04:22:15.300Z,86373.72
2023-11-21T04:22:55.065Z,86378.38
2023-11-21T04:23:38.434Z,86387.56
2023-11-21T04:24:18.792Z,86382.81
2023-11-21T04:24:58.695Z,86376.69
2023-11-21T04:25:38.449Z,86384.06
2023-11-21T04:26:18.562Z,86391.78
2023-11-21T04:26:58.479Z,86393.25
2023-11-21T04:27:38.317Z,86385.16
2023-11-21T04:28:18.207Z,86383.63
2023-11-21T04:28:57.917Z,86378.63
2023-11-21T04:29:38.149Z,86383.53
2023-11-21T04:30:18.258Z,86393.25
2023-11-21T04:30:58.132Z,86386.22
2023-11-21T04:31:37.997Z,86390.28
2023-11-21T04:32:18.631Z,86386.22
2023-11-21T04:32:58.989Z,86387.56
2023-11-21T04:33:38.712Z,86387.34
2023-11-21T04:34:18.518Z,86387.91
2023-11-21T04:34:58.797Z,86381.81
2023-11-21T04:35:38.731Z,86385.97
2023-11-21T04:36:18.731Z,86383.34
2023-11-21T04:36:58.747Z,86384.00
2023-11-21T04:37:38.825Z,86381.38
2023-11-21T04:38:18.760Z,86382.09
2023-11-21T04:38:58.582Z,86384.09
2023-11-21T04:39:38.245Z,86382.75
2023-11-21T04:40:18.488Z,86381.47
2023-11-21T04:40:59.951Z,86380.75
2023-11-21T04:41:44.786Z,86384.94
2023-11-21T04:42:24.596Z,86390.63
2023-11-21T04:43:05.959Z,86389.25
2023-11-21T04:43:45.859Z,86388.47
2023-11-21T04:44:25.542Z,86384.97
2023-11-21T04:45:14.203Z,86389.78
2023-11-21T04:45:54.590Z,86393.22
2023-11-21T04:46:34.732Z,86385.03
2023-11-21T04:47:14.696Z,86393.50
2023-11-21T04:47:54.789Z,86391.41
2023-11-21T04:48:34.770Z,86388.00
2023-11-21T04:49:14.541Z,86394.34
2023-11-21T04:49:54.249Z,86384.78
2023-11-21T04:50:33.964Z,86385.53
2023-11-21T04:51:14.831Z,86385.44
2023-11-21T04:51:54.668Z,86388.09
2023-11-21T04:52:35.216Z,86386.66
2023-11-21T04:53:16.505Z,86397.53
2023-11-21T04:53:56.320Z,86390.13
2023-11-21T04:54:35.988Z,86390.16
2023-11-21T04:55:17.446Z,86386.84
2023-11-21T04:55:57.242Z,86390.91
2023-11-21T04:56:37.463Z,86397.00
2023-11-21T04:57:20.198Z,86400.38
2023-11-21T04:57:59.923Z,86392.88
2023-11-21T04:58:41.829Z,86391.53
2023-11-21T04:59:21.730Z,86397.88
2023-11-21T05:00:01.598Z,86406.13
2023-11-21T05:00:41.611Z,86397.88
2023-11-21T05:01:21.464Z,86397.75
2023-11-21T05:02:02.608Z,86403.09
2023-11-21T05:02:46.584Z,86400.28
2023-11-21T05:03:26.638Z,86395.59
2023-11-21T05:04:08.078Z,86403.28
2023-11-21T05:04:48.142Z,86408.91
2023-11-21T05:05:27.875Z,86406.75
2023-11-21T05:06:07.952Z,86408.66
2023-11-21T05:06:48.246Z,86401.84
2023-11-21T05:07:32.567Z,86401.28
2023-11-21T05:08:13.073Z,86406.25
2023-11-21T05:08:52.758Z,86401.56
2023-11-21T05:09:34.388Z,86403.47
2023-11-21T05:10:16.525Z,86397.19
2023-11-21T05:10:56.223Z,86394.44
2023-11-21T05:11:35.999Z,86399.84
2023-11-21T05:12:16.654Z,86401.88
2023-11-21T05:12:57.488Z,86397.69
2023-11-21T05:13:37.495Z,86396.28
2023-11-21T05:14:17.351Z,86393.59
2023-11-21T05:14:57.377Z,86393.16
2023-11-21T05:15:37.382Z,86396.38
2023-11-21T05:16:17.169Z,86392.25
2023-11-21T05:16:57.570Z,86384.13
2023-11-21T05:17:37.706Z,86398.50
2023-11-21T05:18:18.083Z,86389.50
2023-11-21T05:19:02.748Z,86394.97
2023-11-21T05:19:42.974Z,86388.22
2023-11-21T05:20:23.047Z,86388.84
2023-11-21T05:21:04.284Z,86391.00
2023-11-21T05:21:44.049Z,86397.19
2023-11-21T05:22:23.788Z,86401.44
2023-11-21T05:23:03.555Z,86397.28
2023-11-21T05:23:43.788Z,86403.31
2023-11-21T05:24:23.674Z,86396.56
2023-11-21T05:25:05.566Z,86400.56
2023-11-21T05:25:45.398Z,86401.22
2023-11-21T05:26:25.253Z,86404.84
2023-11-21T05:27:05.118Z,86395.78
2023-11-21T05:27:44.841Z,86404.88
2023-11-21T05:28:24.638Z,86408.94
2023-11-21T05:29:04.857Z,86417.22
2023-11-21T05:29:44.926Z,86417.25
2023-11-21T05:30:24.794Z,86411.63
2023-11-21T05:31:10.878Z,86424.06
2023-11-21T05:31:56.548Z,86422.53
2023-11-21T05:32:36.459Z,86425.16
2023-11-21T05:33:16.313Z,86429.34
2023-11-21T05:33:56.014Z,86424.59
2023-11-21T05:34:36.202Z,86436.31
2023-11-21T05:35:18.653Z,86437.16
2023-11-21T05:35:58.584Z,86433.13
2023-11-21T05:36:38.322Z,86438.69
2023-11-21T05:37:19.645Z,86433.81
2023-11-21T05:37:59.349Z,86441.31
2023-11-21T05:38:39.196Z,86433.78
2023-11-21T05:39:22.870Z,86435.22
2023-11-21T05:40:07.670Z,86440.03
2023-11-21T05:40:47.609Z,86445.50
2023-11-21T05:41:27.822Z,86444.22
2023-11-21T05:42:08.288Z,86440.88
2023-11-21T05:42:48.182Z,86445.00
2023-11-21T05:43:28.059Z,86442.28
2023-11-21T05:44:07.925Z,86449.09
2023-11-21T05:44:47.624Z,86436.75
2023-11-21T05:45:27.800Z,86436.78
2023-11-21T05:46:09.487Z,86434.03
2023-11-21T05:46:49.894Z,86431.28
2023-11-21T05:47:30.285Z,86435.41
2023-11-21T05:48:10.275Z,86443.63
2023-11-21T05:48:50.215Z,86436.75
2023-11-21T05:49:31.155Z,86438.16
2023-11-21T05:50:16.542Z,86441.59
2023-11-21T05:50:56.817Z,86442.94
2023-11-21T05:51:36.684Z,86441.53
2023-11-21T05:52:16.384Z,86442.22
2023-11-21T05:52:56.169Z,86444.31
2023-11-21T05:53:36.292Z,86440.91
2023-11-21T05:54:16.168Z,86438.91
2023-11-21T05:54:55.838Z,86440.94
2023-11-21T05:55:35.515Z,86435.44
2023-11-21T05:56:15.747Z,86437.50
2023-11-21T05:56:55.569Z,86442.34
2023-11-21T05:57:39.199Z,86428.59
2023-11-21T05:58:19.135Z,86446.47
2023-11-21T05:58:59.131Z,86438.22
2023-11-21T05:59:38.816Z,86436.81
2023-11-21T06:00:24.778Z,86432.69
2023-11-21T06:01:09.645Z,86435.47
2023-11-21T06:01:49.865Z,86436.16
2023-11-21T06:02:29.784Z,86431.31
2023-11-21T06:03:10.062Z,86434.78
2023-11-21T06:03:50.318Z,86441.63
2023-11-21T06:04:30.441Z,86441.63
2023-11-21T06:05:12.224Z,86442.28
2023-11-21T06:05:52.019Z,86440.94
2023-11-21T06:06:33.076Z,86431.31
2023-11-21T06:07:13.474Z,86434.03
2023-11-21T06:07:54.846Z,86432.69
2023-11-21T06:08:34.597Z,86433.38
2023-11-21T06:09:15.399Z,86434.03
2023-11-21T06:09:55.288Z,86435.41
2023-11-21T06:10:35.050Z,86431.31
2023-11-21T06:11:14.923Z,86436.13
2023-11-21T06:11:54.698Z,86438.16
2023-11-21T06:12:37.572Z,86433.31
2023-11-21T06:13:17.719Z,86426.47
2023-11-21T06:13:57.413Z,86429.16
2023-11-21T06:14:37.275Z,86432.63
2023-11-21T06:15:17.316Z,86425.09
2023-11-21T06:15:57.077Z,86427.16
2023-11-21T06:16:36.835Z,86429.91
2023-11-21T06:17:16.864Z,86431.31
2023-11-21T06:17:57.398Z,86429.94
2023-11-21T06:18:37.399Z,86428.53
2023-11-21T06:19:17.102Z,86430.63
2023-11-21T06:19:57.348Z,86429.25
2023-11-21T06:20:39.166Z,86435.44
2023-11-21T06:21:20.496Z,86424.41
2023-11-21T06:22:00.503Z,86429.94
2023-11-21T06:22:44.768Z,86429.22
2023-11-21T06:23:25.002Z,86429.81
2023-11-21T06:24:05.039Z,86429.88
2023-11-21T06:24:44.760Z,86428.41
2023-11-21T06:25:24.727Z,86422.25
2023-11-21T06:26:06.440Z,86420.13
2023-11-21T06:26:46.283Z,86417.38
2023-11-21T06:27:26.858Z,86421.59
2023-11-21T06:28:07.117Z,86414.69
2023-11-21T06:28:47.400Z,86413.97
2023-11-21T06:29:27.734Z,86413.22
2023-11-21T06:30:08.668Z,86409.13
2023-11-21T06:30:48.473Z,86409.75
2023-11-21T06:31:29.307Z,86414.59
2023-11-21T06:32:09.101Z,86416.59
2023-11-21T06:32:49.191Z,86417.31
2023-11-21T06:33:29.513Z,86409.75
2023-11-21T06:34:11.719Z,86413.84
2023-11-21T06:34:51.707Z,86412.97
2023-11-21T06:35:34.623Z,86406.03
2023-11-21T06:36:14.429Z,86418.53
2023-11-21T06:36:54.284Z,86414.97
2023-11-21T06:37:34.647Z,86409.97
2023-11-21T06:38:14.348Z,86407.94
2023-11-21T06:38:54.278Z,86404.53
2023-11-21T06:39:34.554Z,86407.44
2023-11-21T06:40:17.125Z,86405.28
2023-11-21T06:40:56.979Z,86403.19
2023-11-21T06:41:37.052Z,86397.72
2023-11-21T06:42:17.431Z,86395.66
2023-11-21T06:42:57.324Z,86398.53
2023-11-21T06:43:38.060Z,86391.81
2023-11-21T06:44:17.888Z,86386.03
2023-11-21T06:45:01.359Z,86388.06
2023-11-21T06:45:41.263Z,86384.56
2023-11-21T06:46:22.096Z,86383.00
2023-11-21T06:47:02.117Z,86383.28
2023-11-21T06:47:42.218Z,86379.22
2023-11-21T06:48:22.469Z,86379.91
2023-11-21T06:49:02.353Z,86378.56
2023-11-21T06:49:43.578Z,86378.53
2023-11-21T06:50:23.813Z,86386.19
2023-11-21T06:51:03.691Z,86385.47
2023-11-21T06:51:43.461Z,86382.63
2023-11-21T06:52:23.417Z,86384.03
2023-11-21T06:53:06.036Z,86387.41
2023-11-21T06:53:46.716Z,86383.03
2023-11-21T06:54:26.969Z,86395.44
2023-11-21T06:55:07.176Z,86389.28
2023-11-21T06:55:47.656Z,86393.50
2023-11-21T06:56:27.810Z,86394.22
2023-11-21T06:57:07.537Z,86390.09
2023-11-21T06:57:48.827Z,86394.28
2023-11-21T06:58:28.711Z,86397.59
2023-11-21T06:59:08.562Z,86395.31
2023-11-21T06:59:48.409Z,86392.66
2023-11-21T07:00:31.655Z,86387.81
2023-11-21T07:01:11.812Z,86389.75
2023-11-21T07:01:52.022Z,86393.00
2023-11-21T07:02:31.907Z,86389.34
2023-11-21T07:03:11.772Z,86388.00
2023-11-21T07:03:52.155Z,86394.22
2023-11-21T07:04:32.118Z,86389.94
2023-11-21T07:05:11.991Z,86391.41
2023-11-21T07:05:51.685Z,86391.84
2023-11-21T07:06:31.914Z,86389.78
2023-11-21T07:07:11.831Z,86396.75
2023-11-21T07:07:52.396Z,86395.59
2023-11-21T07:08:32.098Z,86394.13
2023-11-21T07:09:13.546Z,86391.84
2023-11-21T07:09:53.988Z,86402.56
2023-11-21T07:10:33.761Z,86395.66
2023-11-21T07:11:13.989Z,86396.38
2023-11-21T07:11:55.261Z,86399.84
2023-11-21T07:12:35.093Z,86395.50
2023-11-21T07:13:14.866Z,86405.06
2023-11-21T07:13:54.663Z,86410.59
2023-11-21T07:14:34.612Z,86411.22
2023-11-21T07:15:14.394Z,86409.97
2023-11-21T07:15:54.426Z,86409.34
2023-11-21T07:16:36.858Z,86415.47
2023-11-21T07:17:19.378Z,86406.25
2023-11-21T07:17:59.631Z,86409.63
2023-11-21T07:18:39.645Z,86414.63
2023-11-21T07:19:19.449Z,86416.81
2023-11-21T07:19:59.353Z,86406.84
2023-11-21T07:20:39.167Z,86412.28
2023-11-21T07:21:19.054Z,86403.16
2023-11-21T07:22:00.082Z,86410.88
2023-11-21T07:22:40.397Z,86414.06
2023-11-21T07:23:20.470Z,86408.22
2023-11-21T07:24:00.209Z,86413.97
2023-11-21T07:24:40.056Z,86423.53
2023-11-21T07:25:20.070Z,86416.16
2023-11-21T07:25:59.839Z,86414.06
2023-11-21T07:26:39.759Z,86415.47
2023-11-21T07:27:20.348Z,86415.28
2023-11-21T07:28:00.801Z,86422.75
2023-11-21T07:28:40.697Z,86416.31
2023-11-21T07:29:20.608Z,86419.50
2023-11-21T07:30:00.358Z,86422.22
2023-11-21T07:30:40.214Z,86423.22
2023-11-21T07:31:23.545Z,86428.22
2023-11-21T07:32:03.968Z,86429.81
2023-11-21T07:32:43.852Z,86429.69
2023-11-21T07:33:24.283Z,86427.75
2023-11-21T07:34:04.458Z,86432.19
2023-11-21T07:34:44.386Z,86434.66
2023-11-21T07:35:24.381Z,86429.13
2023-11-21T07:36:04.387Z,86423.97
2023-11-21T07:36:44.300Z,86426.72
2023-11-21T07:37:24.047Z,86433.34
2023-11-21T07:38:03.786Z,86429.00
2023-11-21T07:38:45.014Z,86423.34
2023-11-21T07:39:24.892Z,86426.19
2023-11-21T07:40:05.184Z,86431.56
2023-11-21T07:40:44.998Z,86432.38
2023-11-21T07:41:29.207Z,86430.25
2023-11-21T07:42:12.825Z,86430.13
2023-11-21T07:42:52.995Z,86427.00
2023-11-21T07:43:36.981Z,86427.41
2023-11-21T07:44:21.864Z,86427.06
2023-11-21T07:45:01.783Z,86434.03
2023-11-21T07:45:43.821Z,86435.56
2023-11-21T07:46:26.096Z,86428.91
2023-11-21T07:47:06.844Z,86434.88
2023-11-21T07:47:46.760Z,86437.56
2023-11-21T07:48:26.549Z,86435.41
2023-11-21T07:49:06.301Z,86434.94
2023-11-21T07:49:47.011Z,86440.38
2023-11-21T07:50:27.302Z,86431.34
2023-11-21T07:51:08.864Z,86429.34
2023-11-21T07:51:48.611Z,86438.97
2023-11-21T07:52:28.531Z,86436.50
2023-11-21T07:53:08.349Z,86431.09
2023-11-21T07:53:48.495Z,86439.66
2023-11-21T07:54:28.266Z,86428.56
2023-11-21T07:55:09.566Z,86436.56
2023-11-21T07:55:49.429Z,86438.22
2023-11-21T07:56:29.335Z,86443.72
2023-11-21T07:57:09.636Z,86444.31